createdAt,value
2022-12-07T00:01:15.068Z,8.82
2022-12-07T00:03:43.627Z,8.05
2022-12-07T00:06:13.016Z,8.02
2022-12-07T00:08:39.828Z,9.20
2022-12-07T00:11:12.316Z,8.93
2022-12-07T00:13:39.934Z,10.82
2022-12-07T00:16:08.349Z,7.72
2022-12-07T00:18:35.338Z,7.90
2022-12-07T00:21:04.388Z,8.30
2022-12-07T00:23:31.385Z,8.60
2022-12-07T00:26:05.146Z,9.77
2022-12-07T00:28:31.847Z,12.35
2022-12-07T00:31:11.171Z,8.00
2022-12-07T00:33:39.286Z,10.77
2022-12-07T00:36:12.217Z,9.65
2022-12-07T00:38:40.311Z,10.15
2022-12-07T00:41:18.590Z,13.05
2022-12-07T00:43:46.800Z,9.63
2022-12-07T00:46:14.414Z,11.05
2022-12-07T00:48:41.511Z,8.57
2022-12-07T00:51:08.953Z,11.80
2022-12-07T00:53:41.134Z,10.32
2022-12-07T00:56:21.757Z,8.32
2022-12-07T00:58:56.748Z,8.25
2022-12-07T01:01:24.515Z,7.93
2022-12-07T01:03:51.420Z,9.55
2022-12-07T01:06:20.262Z,10.05
2022-12-07T01:08:47.157Z,8.93
2022-12-07T01:11:19.973Z,8.38
2022-12-07T01:13:47.609Z,8.05
2022-12-07T01:16:16.073Z,7.97
2022-12-07T01:18:46.264Z,9.23
2022-12-07T01:21:15.906Z,11.88
2022-12-07T01:23:43.465Z,9.65
2022-12-07T01:26:15.265Z,8.57
2022-12-07T01:28:42.365Z,9.55
2022-12-07T01:31:15.985Z,9.18
2022-12-07T01:33:48.485Z,8.13
2022-12-07T01:36:20.678Z,7.47
2022-12-07T01:38:49.890Z,7.38
2022-12-07T01:41:16.817Z,8.27
2022-12-07T01:44:09.904Z,8.77
2022-12-07T01:46:36.754Z,8.77
2022-12-07T01:49:08.225Z,10.32
2022-12-07T01:51:36.843Z,6.90
2022-12-07T01:54:03.644Z,7.25
2022-12-07T01:56:32.017Z,7.05
2022-12-07T01:59:00.976Z,8.82
2022-12-07T02:01:27.917Z,8.32
2022-12-07T02:03:55.038Z,8.35
2022-12-07T02:06:24.751Z,8.13
2022-12-07T02:08:52.614Z,8.43
2022-12-07T02:11:20.275Z,7.38
2022-12-07T02:13:48.245Z,9.25
2022-12-07T02:16:20.853Z,8.80
2022-12-07T02:19:21.342Z,7.78
2022-12-07T02:22:14.019Z,8.63
2022-12-07T02:24:56.532Z,8.48
2022-12-07T02:27:38.788Z,9.20
2022-12-07T02:30:07.364Z,8.02
2022-12-07T02:33:00.042Z,10.23
2022-12-07T02:35:40.459Z,7.70
2022-12-07T02:40:52.940Z,6.47
2022-12-07T02:43:28.718Z,8.88
2022-12-07T02:46:05.469Z,7.88
2022-12-07T02:48:34.631Z,8.98
2022-12-07T02:51:01.680Z,8.20
2022-12-07T02:53:43.418Z,9.25
2022-12-07T02:56:44.464Z,9.45
2022-12-07T02:59:39.662Z,11.15
2022-12-07T03:02:40.405Z,8.32
2022-12-07T03:05:10.143Z,8.48
2022-12-07T03:07:58.895Z,8.70
2022-12-07T03:10:46.825Z,8.45
2022-12-07T03:13:35.193Z,7.78
2022-12-07T03:16:29.798Z,7.82
2022-12-07T03:19:01.577Z,8.25
2022-12-07T03:21:37.159Z,11.02
2022-12-07T03:24:09.810Z,8.70
2022-12-07T03:26:42.185Z,8.80
2022-12-07T03:29:15.098Z,12.82
2022-12-07T03:31:46.096Z,8.07
2022-12-07T03:34:22.984Z,8.98
2022-12-07T03:37:03.437Z,10.15
2022-12-07T03:42:19.708Z,8.07
2022-12-07T03:44:46.443Z,6.45
2022-12-07T03:47:42.600Z,8.32
2022-12-07T03:50:20.417Z,7.50
2022-12-07T03:53:03.474Z,6.50
2022-12-07T03:55:36.568Z,7.28
2022-12-07T03:58:14.603Z,7.47
2022-12-07T04:00:42.992Z,8.10
2022-12-07T04:03:10.199Z,7.60
2022-12-07T04:05:37.335Z,8.75
2022-12-07T04:08:04.336Z,7.45
2022-12-07T04:10:31.061Z,8.98
2022-12-07T04:12:57.738Z,9.77
2022-12-07T04:15:24.505Z,7.65
2022-12-07T04:17:51.781Z,8.75
2022-12-07T04:20:18.680Z,6.63
2022-12-07T04:22:45.346Z,8.13
2022-12-07T04:25:12.021Z,9.73
2022-12-07T04:27:38.729Z,8.77
2022-12-07T04:30:06.274Z,8.43
2022-12-07T04:32:32.982Z,8.95
2022-12-07T04:34:59.704Z,7.25
2022-12-07T04:37:26.559Z,9.20
2022-12-07T04:39:53.578Z,6.93
2022-12-07T04:42:20.282Z,7.38
2022-12-07T04:44:47.038Z,6.97
2022-12-07T04:47:13.770Z,6.80
2022-12-07T04:49:40.454Z,6.53
2022-12-07T04:52:07.156Z,8.07
2022-12-07T04:54:34.011Z,9.18
2022-12-07T04:57:00.714Z,8.73
2022-12-07T04:59:27.531Z,6.90
2022-12-07T05:01:54.392Z,8.35
2022-12-07T05:04:21.303Z,7.65
2022-12-07T05:06:47.998Z,6.93
2022-12-07T05:09:14.779Z,6.57
2022-12-07T05:11:41.775Z,8.07
2022-12-07T05:14:14.864Z,6.40
2022-12-07T05:16:43.031Z,7.07
2022-12-07T05:19:10.515Z,8.70
2022-12-07T05:21:38.011Z,8.38
2022-12-07T05:24:05.292Z,8.25
2022-12-07T05:26:32.620Z,8.07
2022-12-07T05:28:59.535Z,7.60
2022-12-07T05:31:27.616Z,9.02
2022-12-07T05:33:54.734Z,7.45
2022-12-07T05:36:21.570Z,5.97
2022-12-07T05:38:48.302Z,6.85
2022-12-07T05:41:35.999Z,6.75
2022-12-07T05:44:02.874Z,8.07
2022-12-07T05:46:29.617Z,7.03
2022-12-07T05:48:56.378Z,5.82
2022-12-07T05:51:23.439Z,6.72
2022-12-07T05:53:50.395Z,5.57
2022-12-07T05:56:17.233Z,5.93
2022-12-07T05:59:02.432Z,8.38
2022-12-07T06:01:29.330Z,7.05
2022-12-07T06:03:56.046Z,6.97
2022-12-07T06:06:22.938Z,5.70
2022-12-07T06:08:49.668Z,7.63
2022-12-07T06:11:35.036Z,6.40
2022-12-07T06:14:01.846Z,6.50
2022-12-07T06:16:28.592Z,7.25
2022-12-07T06:18:55.365Z,8.77
2022-12-07T06:21:22.079Z,6.40
2022-12-07T06:23:49.069Z,5.70
2022-12-07T06:26:15.858Z,6.95
2022-12-07T06:28:42.608Z,9.52
2022-12-07T06:31:13.583Z,7.40
2022-12-07T06:33:42.325Z,7.53
2022-12-07T06:36:10.362Z,6.90
2022-12-07T06:38:37.444Z,6.45
2022-12-07T06:41:04.321Z,10.77
2022-12-07T06:43:31.284Z,7.00
2022-12-07T06:45:58.038Z,8.15
2022-12-07T06:48:24.768Z,6.18
2022-12-07T06:50:55.135Z,5.57
2022-12-07T06:53:22.893Z,5.05
2022-12-07T06:55:50.009Z,6.78
2022-12-07T06:58:16.954Z,5.30
2022-12-07T07:00:44.621Z,7.32
2022-12-07T07:03:11.948Z,8.55
2022-12-07T07:05:38.715Z,7.90
2022-12-07T07:08:21.815Z,6.65
2022-12-07T07:10:49.215Z,7.38
2022-12-07T07:13:16.178Z,7.50
2022-12-07T07:15:43.098Z,5.93
2022-12-07T07:18:09.862Z,5.38
2022-12-07T07:20:36.605Z,6.63
2022-12-07T07:23:03.353Z,9.48
2022-12-07T07:25:30.284Z,8.68
2022-12-07T07:27:56.967Z,7.45
2022-12-07T07:30:24.197Z,7.40
2022-12-07T07:32:51.073Z,6.85
2022-12-07T07:35:17.968Z,6.32
2022-12-07T07:37:44.769Z,8.05
2022-12-07T07:40:11.860Z,6.53
2022-12-07T07:42:38.609Z,10.40
2022-12-07T07:45:05.697Z,8.40
2022-12-07T07:47:32.559Z,7.88
2022-12-07T07:49:59.522Z,8.82
2022-12-07T07:52:26.351Z,8.05
2022-12-07T07:54:53.012Z,7.20
2022-12-07T07:57:19.713Z,7.82
2022-12-07T07:59:46.400Z,7.60
2022-12-07T08:02:18.778Z,8.40
2022-12-07T08:04:46.453Z,7.50
2022-12-07T08:07:14.180Z,9.88
2022-12-07T08:09:40.927Z,6.40
2022-12-07T08:12:07.870Z,5.75
2022-12-07T08:14:35.210Z,6.40
2022-12-07T08:17:02.179Z,7.72
2022-12-07T08:19:29.048Z,8.85
2022-12-07T08:21:56.978Z,10.30
2022-12-07T08:24:24.420Z,9.45
2022-12-07T08:26:51.405Z,10.15
2022-12-07T08:29:18.786Z,10.73
2022-12-07T08:31:45.805Z,8.75
2022-12-07T08:34:13.535Z,10.38
2022-12-07T08:36:40.998Z,12.70
2022-12-07T08:39:30.949Z,11.50
2022-12-07T08:41:54.772Z,11.13
2022-12-07T08:44:21.464Z,11.82
2022-12-07T08:46:53.074Z,12.63
2022-12-07T08:49:24.851Z,9.98
2022-12-07T08:51:51.951Z,15.18
2022-12-07T08:54:20.064Z,9.75
2022-12-07T08:56:49.488Z,9.52
2022-12-07T08:59:19.905Z,8.35
2022-12-07T09:01:46.871Z,7.70
2022-12-07T09:04:13.618Z,11.30
2022-12-07T09:06:40.646Z,9.32
2022-12-07T09:09:08.376Z,10.38
2022-12-07T09:11:35.060Z,7.47
2022-12-07T09:14:01.913Z,9.57
2022-12-07T09:16:29.326Z,10.43
2022-12-07T09:18:56.132Z,10.98
2022-12-07T09:21:22.895Z,7.63
2022-12-07T09:23:49.590Z,8.05
2022-12-07T09:26:16.302Z,7.72
2022-12-07T09:28:42.986Z,9.73
2022-12-07T09:31:26.080Z,9.85
2022-12-07T09:34:00.596Z,9.30
2022-12-07T09:36:28.974Z,7.55
2022-12-07T09:38:56.138Z,9.68
2022-12-07T09:41:24.885Z,7.70
2022-12-07T09:43:52.032Z,12.93
2022-12-07T09:46:21.250Z,7.22
2022-12-07T09:48:50.857Z,8.40
2022-12-07T09:51:25.060Z,13.23
2022-12-07T09:53:55.214Z,8.13
2022-12-07T09:56:23.570Z,7.22
2022-12-07T09:58:51.393Z,7.18
2022-12-07T10:01:20.981Z,11.43
2022-12-07T10:03:54.060Z,11.48
2022-12-07T10:06:21.445Z,10.05
2022-12-07T10:08:48.710Z,6.65
2022-12-07T10:11:17.087Z,6.60
2022-12-07T10:13:50.072Z,7.30
2022-12-07T10:16:25.953Z,10.73
2022-12-07T10:18:53.304Z,5.22
2022-12-07T10:21:26.135Z,10.45
2022-12-07T10:24:04.939Z,6.90
2022-12-07T10:26:35.741Z,9.63
2022-12-07T10:29:13.693Z,11.45
2022-12-07T10:31:41.582Z,7.43
2022-12-07T10:34:26.373Z,9.13
2022-12-07T10:36:54.712Z,8.50
2022-12-07T10:39:23.354Z,7.80
2022-12-07T10:42:01.993Z,11.30
2022-12-07T10:44:30.850Z,8.80
2022-12-07T10:47:05.212Z,4.22
2022-12-07T10:49:56.307Z,7.00
2022-12-07T10:53:01.403Z,6.70
2022-12-07T10:55:40.382Z,6.63
2022-12-07T10:58:49.247Z,9.75
2022-12-07T11:01:31.055Z,6.15
2022-12-07T11:04:22.556Z,8.85
2022-12-07T11:07:16.972Z,7.70
2022-12-07T11:10:14.104Z,9.20
2022-12-07T11:13:14.339Z,6.25
2022-12-07T11:15:59.711Z,11.55
2022-12-07T11:18:43.416Z,7.97
2022-12-07T11:21:46.366Z,6.70
2022-12-07T11:24:19.387Z,9.18
2022-12-07T11:27:09.274Z,7.95
2022-12-07T11:30:02.349Z,4.90
2022-12-07T11:32:53.936Z,4.93
2022-12-07T11:35:46.174Z,7.95
2022-12-07T11:38:18.219Z,9.75
2022-12-07T11:40:50.410Z,4.90
2022-12-07T11:46:11.978Z,7.90
2022-12-07T11:48:46.584Z,6.15
2022-12-07T11:51:14.182Z,7.53
2022-12-07T11:54:02.538Z,8.68
2022-12-07T11:56:30.451Z,8.27
2022-12-07T11:59:05.272Z,8.95
2022-12-07T12:01:32.171Z,4.85
2022-12-07T12:04:10.928Z,6.53
2022-12-07T12:06:43.369Z,10.18
2022-12-07T12:15:01.664Z,8.23
2022-12-07T12:17:52.934Z,8.45
2022-12-07T12:21:19.855Z,7.40
2022-12-07T12:23:52.461Z,7.95
2022-12-07T12:26:28.478Z,5.10
2022-12-07T12:29:04.468Z,5.68
2022-12-07T12:31:31.262Z,9.13
2022-12-07T12:34:01.259Z,8.45
2022-12-07T12:36:43.946Z,4.97
2022-12-07T12:39:17.108Z,5.45
2022-12-07T12:41:49.560Z,5.15
2022-12-07T12:44:16.257Z,7.90
2022-12-07T12:46:57.892Z,5.72
2022-12-07T12:49:24.558Z,7.95
2022-12-07T12:52:04.421Z,8.95
2022-12-07T12:54:39.040Z,8.02
2022-12-07T12:57:16.350Z,11.45
2022-12-07T12:59:53.184Z,10.02
2022-12-07T13:02:32.103Z,6.40
2022-12-07T13:05:13.962Z,6.18
2022-12-07T13:07:52.536Z,5.88
2022-12-07T13:10:31.219Z,6.38
2022-12-07T13:13:02.690Z,8.32
2022-12-07T13:15:38.372Z,12.48
2022-12-07T13:18:08.960Z,5.90
2022-12-07T13:20:47.962Z,5.57
2022-12-07T13:23:19.358Z,10.95
2022-12-07T13:26:19.963Z,8.63
2022-12-07T13:29:11.361Z,7.20
2022-12-07T13:31:45.265Z,8.15
2022-12-07T13:34:30.255Z,5.78
2022-12-07T13:36:57.571Z,7.07
2022-12-07T13:39:26.993Z,5.78
2022-12-07T13:41:58.952Z,4.65
2022-12-07T13:44:28.026Z,6.88
2022-12-07T13:47:04.931Z,6.80
2022-12-07T13:49:34.193Z,8.48
2022-12-07T13:52:20.797Z,8.02
2022-12-07T13:55:01.390Z,4.40
2022-12-07T13:57:31.506Z,7.25
2022-12-07T13:59:59.523Z,6.22
2022-12-07T14:02:34.868Z,6.80
2022-12-07T14:05:17.005Z,4.95
2022-12-07T14:07:54.671Z,4.72
2022-12-07T14:10:25.635Z,4.30
2022-12-07T14:12:52.474Z,4.25
2022-12-07T14:15:29.692Z,5.10
2022-12-07T14:17:57.323Z,3.55
2022-12-07T14:20:50.507Z,4.22
2022-12-07T14:23:27.270Z,7.10
2022-12-07T14:25:54.616Z,3.42
2022-12-07T14:28:32.119Z,2.67
2022-12-07T14:30:59.775Z,3.05
2022-12-07T14:33:27.167Z,4.45
2022-12-07T14:35:58.751Z,6.32
2022-12-07T14:38:27.102Z,2.95
2022-12-07T14:40:55.153Z,5.20
2022-12-07T14:43:22.093Z,4.03
2022-12-07T14:45:48.850Z,3.70
2022-12-07T14:53:56.976Z,2.17
2022-12-07T14:56:24.735Z,5.65
2022-12-07T14:58:51.427Z,4.50
2022-12-07T15:01:18.252Z,8.13
2022-12-07T15:03:45.102Z,10.50
2022-12-07T15:06:15.636Z,6.68
2022-12-07T15:08:42.449Z,6.43
2022-12-07T15:11:14.610Z,3.55
2022-12-07T15:13:59.865Z,4.43
2022-12-07T15:16:26.864Z,3.67
2022-12-07T15:19:26.190Z,8.80
2022-12-07T15:21:41.307Z,3.85
2022-12-07T15:24:10.415Z,4.28
2022-12-07T15:26:37.483Z,3.72
2022-12-07T15:29:04.490Z,4.45
2022-12-07T15:31:54.410Z,2.85
2022-12-07T15:34:18.110Z,2.22
2022-12-07T15:36:44.893Z,2.45
2022-12-07T15:39:14.413Z,4.75
2022-12-07T15:41:41.584Z,6.82
2022-12-07T15:44:32.257Z,6.53
2022-12-07T15:46:59.332Z,6.00
2022-12-07T15:49:26.797Z,4.13
2022-12-07T15:51:53.553Z,5.93
2022-12-07T15:54:25.608Z,4.30
2022-12-07T15:56:53.162Z,5.00
2022-12-07T15:59:20.004Z,7.03
2022-12-07T16:01:46.923Z,6.45
2022-12-07T16:04:14.027Z,5.28
2022-12-07T16:06:41.099Z,7.35
2022-12-07T16:09:07.884Z,7.57
2022-12-07T16:11:34.772Z,8.25
2022-12-07T16:14:01.506Z,5.13
2022-12-07T16:16:29.364Z,5.25
2022-12-07T16:18:56.252Z,6.13
2022-12-07T16:21:25.504Z,6.88
2022-12-07T16:23:52.849Z,6.35
2022-12-07T16:26:22.475Z,7.40
2022-12-07T16:28:53.837Z,8.15
2022-12-07T16:31:26.317Z,8.15
2022-12-07T16:33:58.346Z,7.85
2022-12-07T16:36:54.973Z,10.65
2022-12-07T16:39:13.097Z,26.33
2022-12-07T16:41:39.765Z,23.63
2022-12-07T16:44:08.518Z,13.27
2022-12-07T16:46:36.923Z,21.42
2022-12-07T16:49:04.953Z,16.75
2022-12-07T16:51:32.485Z,10.10
2022-12-07T16:53:59.746Z,8.23
2022-12-07T16:56:27.688Z,10.90
2022-12-07T16:58:55.699Z,14.88
2022-12-07T17:01:23.704Z,10.13
2022-12-07T17:03:51.066Z,8.38
2022-12-07T17:06:20.313Z,8.73
2022-12-07T17:08:48.333Z,7.85
2022-12-07T17:11:18.275Z,8.25
2022-12-07T17:14:03.624Z,9.93
2022-12-07T17:16:31.171Z,9.88
2022-12-07T17:18:58.257Z,10.10
2022-12-07T17:21:25.361Z,9.05
2022-12-07T17:23:52.351Z,9.00
2022-12-07T17:26:27.379Z,9.95
2022-12-07T17:28:58.415Z,12.52
2022-12-07T17:31:25.576Z,9.98
2022-12-07T17:33:52.771Z,9.93
2022-12-07T17:36:24.634Z,9.98
2022-12-07T17:38:51.846Z,8.60
2022-12-07T17:41:42.953Z,8.02
2022-12-07T17:44:12.751Z,13.30
2022-12-07T17:46:40.187Z,12.13
2022-12-07T17:49:07.730Z,15.20
2022-12-07T17:51:53.256Z,13.00
2022-12-07T17:54:20.390Z,12.32
2022-12-07T17:56:47.857Z,12.82
2022-12-07T17:59:14.864Z,10.68
2022-12-07T18:01:43.129Z,7.00
2022-12-07T18:04:10.020Z,7.97
2022-12-07T18:06:37.529Z,8.05
2022-12-07T18:09:04.380Z,8.73
2022-12-07T18:11:32.414Z,8.35
2022-12-07T18:13:59.876Z,13.23
2022-12-07T18:16:28.725Z,10.70
2022-12-07T18:18:59.082Z,9.07
2022-12-07T18:21:27.456Z,11.13
2022-12-07T18:23:56.814Z,10.15
2022-12-07T18:26:25.847Z,8.00
2022-12-07T18:28:52.807Z,8.07
2022-12-07T18:31:20.566Z,7.35
2022-12-07T18:33:48.795Z,6.78
2022-12-07T18:36:18.450Z,10.18
2022-12-07T18:38:45.170Z,8.85
2022-12-07T18:41:13.726Z,10.45
2022-12-07T18:43:41.109Z,10.60
2022-12-07T18:46:16.856Z,11.38
2022-12-07T18:48:44.082Z,10.48
2022-12-07T18:51:12.697Z,9.45
2022-12-07T18:53:40.093Z,13.02
2022-12-07T18:56:11.956Z,12.82
2022-12-07T18:58:38.980Z,12.45
2022-12-07T19:01:05.869Z,12.98
2022-12-07T19:03:33.771Z,11.25
2022-12-07T19:06:06.823Z,11.10
2022-12-07T19:08:34.805Z,9.43
2022-12-07T19:11:23.938Z,14.80
2022-12-07T19:13:51.285Z,11.07
2022-12-07T19:16:18.102Z,14.32
2022-12-07T19:18:50.674Z,17.15
2022-12-07T19:21:18.581Z,20.25
2022-12-07T19:23:45.422Z,14.80
2022-12-07T19:26:12.152Z,9.82
2022-12-07T19:28:38.966Z,9.38
2022-12-07T19:31:11.244Z,12.35
2022-12-07T19:33:39.551Z,9.25
2022-12-07T19:36:07.147Z,19.88
2022-12-07T19:38:34.806Z,18.63
2022-12-07T19:41:06.391Z,18.50
2022-12-07T19:43:34.666Z,20.17
2022-12-07T19:46:09.239Z,23.65
2022-12-07T19:48:35.934Z,19.90
2022-12-07T19:51:04.316Z,19.17
2022-12-07T19:53:33.930Z,16.95
2022-12-07T19:56:00.627Z,15.40
2022-12-07T19:58:27.375Z,20.40
2022-12-07T20:00:54.160Z,19.15
2022-12-07T20:03:21.506Z,15.85
2022-12-07T20:05:48.252Z,15.00
2022-12-07T20:08:15.080Z,15.48
2022-12-07T20:10:41.907Z,13.75
2022-12-07T20:13:28.069Z,13.68
2022-12-07T20:16:12.123Z,14.80
2022-12-07T20:18:42.359Z,16.95
2022-12-07T20:21:09.090Z,19.08
2022-12-07T20:23:35.769Z,14.88
2022-12-07T20:26:05.817Z,12.55
2022-12-07T20:28:32.880Z,15.48
2022-12-07T20:30:59.803Z,16.08
2022-12-07T20:33:26.629Z,18.23
2022-12-07T20:35:58.424Z,12.52
2022-12-07T20:38:26.147Z,12.98
2022-12-07T20:40:52.834Z,10.88
2022-12-07T20:43:19.531Z,12.05
2022-12-07T20:45:50.119Z,11.27
2022-12-07T20:48:16.897Z,9.98
2022-12-07T20:50:43.669Z,11.88
2022-12-07T20:53:10.438Z,9.48
2022-12-07T20:55:37.798Z,9.05
2022-12-07T20:58:04.730Z,10.60
2022-12-07T21:00:31.533Z,9.27
2022-12-07T21:02:58.514Z,11.98
2022-12-07T21:05:25.335Z,10.02
2022-12-07T21:07:52.093Z,11.60
2022-12-07T21:10:18.890Z,8.90
2022-12-07T21:12:45.572Z,8.50
2022-12-07T21:15:12.501Z,8.93
2022-12-07T21:17:39.234Z,11.25
2022-12-07T21:20:06.694Z,8.93
2022-12-07T21:22:33.408Z,8.48
2022-12-07T21:25:00.258Z,8.77
2022-12-07T21:27:27.084Z,10.80
2022-12-07T21:29:54.396Z,8.77
2022-12-07T21:32:21.455Z,11.15
2022-12-07T21:34:48.289Z,9.00
2022-12-07T21:37:15.114Z,13.88
2022-12-07T21:39:41.852Z,6.95
2022-12-07T21:42:08.561Z,9.68
2022-12-07T21:44:35.440Z,13.50
2022-12-07T21:47:02.292Z,14.05
2022-12-07T21:49:29.103Z,11.70
2022-12-07T21:51:55.971Z,10.68
2022-12-07T21:54:25.809Z,10.52
2022-12-07T21:56:53.042Z,9.18
2022-12-07T21:59:21.215Z,7.78
2022-12-07T22:01:48.679Z,11.98
2022-12-07T22:04:18.863Z,8.55
2022-12-07T22:06:48.340Z,10.98
2022-12-07T22:09:15.727Z,6.97
2022-12-07T22:11:42.364Z,7.35
2022-12-07T22:14:28.934Z,9.57
2022-12-07T22:16:55.806Z,5.82
2022-12-07T22:19:22.582Z,7.85
2022-12-07T22:21:49.319Z,7.45
2022-12-07T22:24:17.168Z,6.18
2022-12-07T22:26:44.371Z,8.85
2022-12-07T22:29:11.987Z,6.65
2022-12-07T22:31:40.893Z,8.82
2022-12-07T22:34:12.748Z,9.73
2022-12-07T22:36:39.458Z,8.38
2022-12-07T22:39:06.211Z,8.05
2022-12-07T22:41:33.501Z,6.43
2022-12-07T22:44:00.771Z,8.35
2022-12-07T22:46:28.507Z,5.95
2022-12-07T22:48:55.256Z,5.95
2022-12-07T22:51:24.610Z,6.60
2022-12-07T22:53:52.477Z,7.88
2022-12-07T22:56:19.738Z,8.80
2022-12-07T22:58:47.091Z,8.95
2022-12-07T23:01:15.796Z,7.35
2022-12-07T23:03:43.763Z,8.23
2022-12-07T23:06:24.150Z,6.22
2022-12-07T23:08:52.270Z,6.43
2022-12-07T23:11:41.468Z,7.78
2022-12-07T23:14:14.276Z,6.05
2022-12-07T23:16:41.378Z,7.22
2022-12-07T23:19:08.319Z,7.75
2022-12-07T23:21:35.526Z,5.72
2022-12-07T23:24:02.367Z,6.47
2022-12-07T23:26:29.237Z,8.75
2022-12-07T23:28:55.971Z,7.82
2022-12-07T23:31:22.900Z,6.70
2022-12-07T23:33:49.688Z,5.75
2022-12-07T23:36:17.823Z,9.25
2022-12-07T23:38:46.444Z,10.23
2022-12-07T23:41:15.811Z,6.03
2022-12-07T23:43:43.318Z,7.38
2022-12-07T23:46:15.712Z,6.18
2022-12-07T23:48:42.889Z,6.70
2022-12-07T23:51:10.648Z,6.28
2022-12-07T23:53:40.264Z,7.40
2022-12-07T23:56:07.463Z,6.90
2022-12-07T23:58:34.150Z,5.88
